x

La Have Bank (44150) Wave Buoy

3:00pm - Wed 27th May 2015 All times are ADT. -3 hours from GMT.

  • Sig Wave height 4.3ft
  • Peak Period 6s
  • Wind
    13mph, 16mph gusts
  • Sea Temp 46°f
  • Air Temp 56°f
  • Sea Pressure 1030mb
  • La Have Bank
  • La Have Bank

More Historic Weather Station data

Upgrade to MSW Pro to gain access to the past 30 days of data for over 8000 Wavebouys and Weather Stations around the globe.

Join Pro

Comparision Forecast

View Surf forecast
   
Wed 05/27 3:00pm 4.5ft 6s 13 16 mph 1030mb 46f 56f
2:00pm 4ft 6s 13
mph
1029.9mb 47f 55f
1:00pm 4.5ft 6s 13
mph
1029.5mb 47f 53f
12:00pm 4.5ft 6s 13
mph
1028.7mb 46f 54f
11:00am 4.5ft 6s 16 18 mph 1028.1mb 46f 54f
10:00am 4.5ft 6s 16 18 mph 1027.8mb 46f 53f
9:00am 5ft 6s 16 18 mph 1027.4mb 46f 54f
8:00am 5ft 6s 16 18 mph 1026.7mb 46f 55f
7:00am 5ft 6s 18 20 mph 1026.4mb 46f 55f
6:00am 4.5ft 7s 18 20 mph 1026.2mb 46f 55f
5:00am 4.5ft 7s 18
mph
1026.3mb 46f 55f
4:00am 4.5ft 6s 16 18 mph 1026.4mb 46f 55f
3:00am 5ft 7s 18 20 mph 1026.4mb 46f 56f
2:00am 5ft 7s 18 22 mph 1026.1mb 46f 56f
1:00am 5ft 7s 18
mph
1025.7mb 46f 55f
12:00am 5ft 6s 18 20 mph 1025.3mb 45f 55f
Tue 05/26 11:00pm 4.5ft 5s 16 18 mph 1025.3mb 45f 54f
10:00pm 4.5ft 5s 11 13 mph 1025.5mb 45f 52f
9:00pm 4ft 5s 13 16 mph 1025.6mb 45f 53f
8:00pm 4ft 5s 13 16 mph 1025.9mb 45f 53f
7:00pm 4ft 5s 16
mph
1026.2mb 45f 53f
6:00pm 3.5ft 5s 18 20 mph 1026.5mb 46f 54f
5:00pm 3.5ft 5s 18
mph
1027.1mb 45f 53f
4:00pm 3ft 6s 16 18 mph 1027.3mb 45f 53f
3:00pm 3ft 5s 16 18 mph 1027.9mb 46f 53f
2:00pm 3ft 4s 13
mph
1028.5mb 45f 53f
1:00pm 3ft 5s 13
mph
1028.6mb 45f 52f
12:00pm 3.5ft 5s 13
mph
1028.6mb 46f 53f
11:00am 3.5ft 5s 13
mph
1028.4mb 46f 52f
10:00am 3.5ft 5s 13
mph
1028.3mb 45f 51f
9:00am 3.5ft 5s 13
mph
1027.9mb 46f 52f
8:00am 3.5ft 5s 13
mph
1027.5mb 46f 51f
7:00am 3ft 6s 11 13 mph 1027mb 46f 51f
6:00am 3ft 6s 13
mph
1026.6mb 46f 52f
5:00am 2.5ft 6s 11
mph
1026.7mb 46f 51f
4:00am 2.5ft 6s 11
mph
1027mb 45f 51f
3:00am 3ft 6s 11 13 mph 1027.1mb 46f 52f
2:00am 3ft 6s 13 16 mph 1026.9mb 45f 53f
1:00am 3ft 6s 11 13 mph 1026.5mb 46f 51f
12:00am 3.5ft 6s 13
mph
1026.3mb 45f 51f
Mon 05/25 11:00pm 3.5ft 6s 11 13 mph 1026.2mb 45f 50f
10:00pm 4ft 6s 13
mph
1026.1mb 46f 51f
9:00pm 4.5ft 7s 13
mph
1026mb 46f 51f
8:00pm 5ft 7s 13 16 mph 1026.2mb 46f 51f
7:00pm 5ft 6s 13
mph
1026.5mb 46f 51f
6:00pm 5ft 7s 16 18 mph 1026.8mb 46f 52f
5:00pm 5ft 7s 16 18 mph 1027.2mb 46f 51f
4:00pm 5.5ft 6s 16 18 mph 1027.9mb 46f 51f
3:00pm 5ft 7s 16 18 mph 1028.2mb 46f 52f
2:00pm 5ft 7s 16 18 mph 1028.1mb 46f 52f
1:00pm 5ft 7s 16 18 mph 1028mb 46f 52f
12:00pm 5ft 7s 18 20 mph 1027.9mb 46f 53f
11:00am 5.5ft 7s 16 18 mph 1027.3mb 45f 52f
10:00am 6ft 7s 18
mph
1026.7mb 45f 51f
9:00am 6ft 7s 16 18 mph 1026.1mb 45f 50f
8:00am 7ft 7s 18 25 mph 1025.5mb 45f 51f
7:00am 6.5ft 7s 18 20 mph 1025.2mb 46f 50f
6:00am 6.5ft 7s 20 22 mph 1024.8mb 46f 50f
5:00am 7ft 8s 20 22 mph 1024.6mb 46f 50f
4:00am 7ft 7s 20 25 mph 1024.5mb 46f 51f
3:00am 7ft 7s 20 22 mph 1024.3mb 46f 50f
2:00am 7ft 8s 18 22 mph 1024.1mb 46f 50f
1:00am 6.5ft 8s 18 22 mph 1023.9mb 46f 50f
12:00am 7ft 8s 18 20 mph 1023.5mb 46f 50f
Sun 05/24 11:00pm 6.5ft 7s 18 20 mph 1023.2mb 46f 50f
10:00pm 7ft 7s 16 20 mph 1023.1mb 46f 50f
9:00pm 7ft 7s 16 18 mph 1023.1mb 46f 50f
8:00pm 7.5ft 7s 20 22 mph 1023.3mb 47f 51f
7:00pm 8ft 7s 18 22 mph 1023.5mb 47f 51f
6:00pm 8ft 7s 22 25 mph 1024mb 47f 52f
5:00pm 7.5ft 7s 25 29 mph 1024.6mb 47f 53f
4:00pm 7ft 7s 22 25 mph 1025.5mb 46f 52f
3:00pm 6ft 7s 20 22 mph 1026.2mb 46f 51f
2:00pm 6ft 7s 20 22 mph 1026.4mb 46f 51f
1:00pm 6ft 7s 22 25 mph 1026.6mb 46f 51f
12:00pm 6ft 7s 20 25 mph 1026.7mb 46f 50f
11:00am 6ft 7s 22 27 mph 1027mb 46f 50f
10:00am 5ft 7s 22 25 mph 1027.5mb 46f 49f
9:00am 5ft 6s 20 25 mph 1027.8mb 47f 49f
8:00am  -   -  20
mph
1027.4mb - 49f
7:00am 6ft 7s 22 25 mph 1027.3mb 48f 49f
6:00am 6ft 8s 20 22 mph 1027.4mb 48f 47f
5:00am 7ft 8s 20 25 mph 1027.4mb 49f 48f
4:00am 6.5ft 8s 18 22 mph 1027.4mb 49f 48f
3:00am 7ft 8s 16 20 mph 1027.3mb 48f 49f
2:00am 6.5ft 9s 18 22 mph 1027.1mb 49f 48f
1:00am 6.5ft 8s 18 22 mph 1026.4mb 49f 48f
12:00am 7ft 9s 18 22 mph 1025.7mb 48f 47f
Sat 05/23 11:00pm 8ft 9s 22 27 mph 1025.1mb 48f 47f
10:00pm 8ft 9s 22 29 mph 1024.6mb 49f 47f
9:00pm 8ft 9s 22 27 mph 1024.1mb 49f 45f
8:00pm 10ft 8s 25 29 mph 1023.6mb 50f 46f